createdAt,value
2019-03-13T00:01:36.658Z,11.35
2019-03-13T00:04:04.953Z,11.28
2019-03-13T00:06:33.059Z,11.02
2019-03-13T00:09:01.191Z,10.83
2019-03-13T00:11:31.281Z,10.72
2019-03-13T00:13:59.407Z,10.68
2019-03-13T00:16:27.504Z,10.44
2019-03-13T00:18:55.565Z,10.24
2019-03-13T00:21:23.719Z,10.11
2019-03-13T00:23:51.809Z,9.85
2019-03-13T00:26:19.899Z,9.66
2019-03-13T00:28:47.900Z,9.50
2019-03-13T00:31:17.113Z,9.40
2019-03-13T00:33:45.481Z,9.18
2019-03-13T00:36:13.480Z,9.06
2019-03-13T00:38:41.562Z,8.92
2019-03-13T00:41:09.587Z,8.82
2019-03-13T00:43:37.772Z,8.62
2019-03-13T00:46:06.040Z,8.44
2019-03-13T00:48:34.171Z,8.35
2019-03-13T00:51:02.400Z,8.13
2019-03-13T00:53:31.733Z,8.16
2019-03-13T00:56:00.059Z,8.12
2019-03-13T00:58:28.160Z,8.26
2019-03-13T01:01:04.515Z,8.06
2019-03-13T01:03:40.565Z,7.93
2019-03-13T01:06:13.385Z,7.87
2019-03-13T01:08:41.853Z,7.76
2019-03-13T01:11:09.756Z,7.56
2019-03-13T01:13:37.991Z,7.49
2019-03-13T01:16:05.875Z,7.43
2019-03-13T01:18:34.041Z,7.44
2019-03-13T01:21:02.137Z,7.40
2019-03-13T01:23:30.799Z,7.41
2019-03-13T01:25:59.755Z,7.27
2019-03-13T01:28:27.861Z,7.41
2019-03-13T01:31:22.357Z,7.40
2019-03-13T01:33:50.853Z,7.39
2019-03-13T01:36:18.862Z,7.37
2019-03-13T01:38:48.651Z,7.46
2019-03-13T01:41:16.865Z,7.42
2019-03-13T01:43:45.128Z,7.24
2019-03-13T01:46:13.231Z,7.22
2019-03-13T01:48:41.341Z,7.13
2019-03-13T01:51:09.447Z,7.07
2019-03-13T01:53:37.371Z,7.09
2019-03-13T01:56:05.731Z,7.10
2019-03-13T01:58:33.628Z,7.17
2019-03-13T02:01:02.218Z,7.05
2019-03-13T02:03:30.633Z,7.09
2019-03-13T02:05:58.935Z,7.06
2019-03-13T02:08:27.802Z,6.99
2019-03-13T02:10:55.873Z,6.93
2019-03-13T02:13:26.284Z,6.97
2019-03-13T02:15:54.300Z,6.98
2019-03-13T02:18:22.340Z,6.92
2019-03-13T02:20:50.303Z,6.91
2019-03-13T02:23:18.346Z,6.93
2019-03-13T02:25:46.511Z,6.92
2019-03-13T02:28:14.543Z,6.88
2019-03-13T02:30:42.509Z,6.74
2019-03-13T02:33:10.746Z,6.59
2019-03-13T02:35:38.844Z,6.56
2019-03-13T02:38:06.915Z,6.61
2019-03-13T02:40:35.278Z,6.48
2019-03-13T02:43:03.380Z,6.45
2019-03-13T02:45:31.574Z,6.28
2019-03-13T02:47:59.569Z,6.29
2019-03-13T02:50:27.680Z,6.31
2019-03-13T02:52:55.951Z,6.28
2019-03-13T02:55:23.884Z,6.30
2019-03-13T02:57:51.996Z,6.27
2019-03-13T03:00:28.704Z,6.33
2019-03-13T03:02:58.853Z,6.30
2019-03-13T03:05:26.873Z,6.38
2019-03-13T03:07:56.666Z,6.32
2019-03-13T03:10:24.639Z,6.34
2019-03-13T03:12:52.949Z,6.40
2019-03-13T03:15:22.682Z,6.31
2019-03-13T03:17:53.338Z,6.28
2019-03-13T03:20:21.591Z,6.32
2019-03-13T03:22:49.717Z,6.25
2019-03-13T03:25:24.428Z,6.29
2019-03-13T03:27:52.650Z,6.25
2019-03-13T03:30:21.388Z,6.21
2019-03-13T03:32:49.381Z,6.06
2019-03-13T03:35:17.443Z,6.00
2019-03-13T03:37:45.663Z,6.10
2019-03-13T03:40:14.621Z,6.04
2019-03-13T03:42:42.736Z,6.01
2019-03-13T03:45:10.655Z,5.90
2019-03-13T03:47:38.932Z,5.71
2019-03-13T03:50:09.410Z,5.89
2019-03-13T03:52:38.887Z,5.96
2019-03-13T03:55:07.013Z,6.09
2019-03-13T03:57:35.257Z,6.05
2019-03-13T04:00:05.005Z,6.00
2019-03-13T04:02:34.097Z,6.07
2019-03-13T04:05:02.467Z,6.03
2019-03-13T04:07:30.846Z,6.00
2019-03-13T04:09:59.127Z,5.92
2019-03-13T04:12:27.188Z,5.91
2019-03-13T04:14:56.923Z,5.89
2019-03-13T04:17:25.367Z,6.00
2019-03-13T04:19:56.033Z,6.04
2019-03-13T04:22:24.089Z,6.04
2019-03-13T04:24:52.145Z,6.06
2019-03-13T04:27:20.320Z,6.01
2019-03-13T04:29:48.409Z,6.07
2019-03-13T04:32:16.489Z,6.07
2019-03-13T04:34:44.714Z,6.14
2019-03-13T04:37:12.972Z,6.10
2019-03-13T04:39:41.231Z,5.98
2019-03-13T04:42:09.386Z,5.95
2019-03-13T04:44:37.614Z,5.93
2019-03-13T04:47:06.107Z,5.89
2019-03-13T04:49:34.381Z,5.86
2019-03-13T04:52:02.425Z,5.88
2019-03-13T04:54:30.456Z,5.94
2019-03-13T04:56:58.922Z,6.00
2019-03-13T04:59:26.908Z,6.01
2019-03-13T05:01:56.182Z,6.01
2019-03-13T05:04:24.757Z,6.06
2019-03-13T05:06:52.879Z,6.01
2019-03-13T05:09:34.551Z,6.03
2019-03-13T05:12:02.895Z,6.07
2019-03-13T05:14:32.867Z,6.15
2019-03-13T05:17:01.367Z,6.15
2019-03-13T05:19:29.328Z,6.05
2019-03-13T05:21:57.914Z,6.18
2019-03-13T05:24:26.030Z,6.05
2019-03-13T05:26:54.050Z,6.09
2019-03-13T05:29:22.011Z,6.12
2019-03-13T05:31:50.819Z,5.98
2019-03-13T05:34:18.840Z,6.00
2019-03-13T05:36:46.895Z,6.00
2019-03-13T05:39:14.981Z,6.03
2019-03-13T05:41:43.061Z,5.89
2019-03-13T05:44:11.156Z,5.74
2019-03-13T05:46:39.461Z,5.67
2019-03-13T05:49:07.522Z,5.61
2019-03-13T05:51:36.013Z,5.64
2019-03-13T05:54:04.200Z,5.67
2019-03-13T05:56:32.232Z,5.53
2019-03-13T05:59:00.652Z,5.49
2019-03-13T06:01:28.683Z,5.55
2019-03-13T06:03:56.737Z,5.63
2019-03-13T06:06:24.667Z,5.57
2019-03-13T06:08:52.891Z,5.57
2019-03-13T06:11:21.679Z,5.55
2019-03-13T06:13:50.259Z,5.58
2019-03-13T06:16:18.621Z,5.87
2019-03-13T06:18:46.899Z,5.93
2019-03-13T06:21:14.929Z,5.85
2019-03-13T06:23:42.949Z,5.81
2019-03-13T06:26:11.233Z,5.85
2019-03-13T06:28:39.435Z,5.84
2019-03-13T06:31:07.545Z,5.84
2019-03-13T06:33:35.918Z,5.87
2019-03-13T06:36:04.345Z,5.80
2019-03-13T06:38:32.467Z,5.77
2019-03-13T06:41:00.788Z,5.84
2019-03-13T06:43:28.826Z,5.65
2019-03-13T06:45:56.793Z,5.49
2019-03-13T06:48:24.926Z,5.36
2019-03-13T06:50:53.314Z,5.25
2019-03-13T06:53:21.370Z,5.27
2019-03-13T06:55:49.837Z,5.25
2019-03-13T06:58:22.940Z,5.15
2019-03-13T07:01:10.718Z,5.12
2019-03-13T07:03:54.443Z,5.13
2019-03-13T07:06:40.733Z,5.02
2019-03-13T07:09:20.323Z,5.41
2019-03-13T07:11:56.242Z,5.84
2019-03-13T07:14:50.053Z,6.20
2019-03-13T07:17:43.785Z,6.46
2019-03-13T07:20:37.518Z,6.65
2019-03-13T07:23:26.172Z,6.66
2019-03-13T07:26:21.042Z,6.75
2019-03-13T07:29:11.474Z,6.84
2019-03-13T07:31:51.450Z,6.90
2019-03-13T07:34:32.455Z,7.10
2019-03-13T07:37:38.324Z,7.36
2019-03-13T07:40:30.491Z,7.55
2019-03-13T07:43:16.626Z,7.52
2019-03-13T07:46:03.009Z,7.58
2019-03-13T07:48:50.750Z,7.54
2019-03-13T07:51:40.636Z,7.30
2019-03-13T07:54:28.266Z,7.52
2019-03-13T07:57:16.196Z,7.60
2019-03-13T08:00:02.529Z,7.49
2019-03-13T08:02:50.313Z,7.52
2019-03-13T08:05:50.106Z,7.45
2019-03-13T08:08:30.229Z,7.52
2019-03-13T08:11:17.940Z,7.42
2019-03-13T08:14:11.755Z,7.29
2019-03-13T08:16:56.539Z,7.42
2019-03-13T08:19:47.139Z,7.53
2019-03-13T08:22:30.386Z,7.68
2019-03-13T08:25:24.206Z,7.55
2019-03-13T08:28:20.989Z,7.83
2019-03-13T08:30:59.056Z,7.77
2019-03-13T08:33:46.102Z,7.95
2019-03-13T08:36:40.898Z,7.77
2019-03-13T08:39:31.683Z,7.75
2019-03-13T08:42:15.607Z,7.88
2019-03-13T08:44:50.158Z,7.82
2019-03-13T08:47:36.317Z,7.78
2019-03-13T08:50:24.819Z,8.01
2019-03-13T08:53:12.473Z,7.80
2019-03-13T08:55:50.910Z,7.44
2019-03-13T08:58:38.596Z,7.69
2019-03-13T09:01:25.303Z,7.73
2019-03-13T09:04:05.965Z,7.65
2019-03-13T09:06:54.941Z,7.35
2019-03-13T09:09:30.471Z,7.43
2019-03-13T09:12:27.079Z,7.92
2019-03-13T09:15:16.763Z,8.44
2019-03-13T09:17:56.256Z,8.34
2019-03-13T09:20:32.222Z,8.19
2019-03-13T09:23:28.877Z,8.26
2019-03-13T09:26:24.332Z,8.35
2019-03-13T09:29:09.317Z,8.23
2019-03-13T09:31:53.801Z,8.17
2019-03-13T09:34:52.198Z,7.98
2019-03-13T09:37:42.670Z,8.12
2019-03-13T09:40:39.271Z,8.23
2019-03-13T09:43:44.954Z,8.55
2019-03-13T09:46:35.444Z,8.65
2019-03-13T09:49:14.341Z,8.73
2019-03-13T09:52:07.461Z,8.79
2019-03-13T09:54:52.888Z,8.77
2019-03-13T09:57:34.530Z,9.03
2019-03-13T10:00:26.134Z,8.95
2019-03-13T10:03:07.920Z,9.06
2019-03-13T10:05:59.191Z,8.60
2019-03-13T10:08:45.005Z,8.54
2019-03-13T10:11:23.898Z,8.77
2019-03-13T10:13:59.797Z,9.42
2019-03-13T10:17:10.662Z,9.24
2019-03-13T10:20:07.652Z,9.36
2019-03-13T10:22:48.253Z,9.51
2019-03-13T10:25:31.694Z,9.15
2019-03-13T10:28:19.377Z,9.14
2019-03-13T10:31:09.853Z,9.69
2019-03-13T10:34:09.799Z,9.72
2019-03-13T10:36:57.872Z,9.19
2019-03-13T10:39:57.746Z,9.11
2019-03-13T10:42:45.338Z,9.02
2019-03-13T10:45:35.702Z,9.60
2019-03-13T10:48:08.356Z,10.14
2019-03-13T10:50:53.697Z,10.75
2019-03-13T10:53:40.242Z,10.67
2019-03-13T10:56:30.899Z,10.41
2019-03-13T10:59:10.470Z,9.70
2019-03-13T11:01:54.055Z,9.87
2019-03-13T11:04:27.838Z,10.25
2019-03-13T11:07:17.272Z,10.59
2019-03-13T11:10:12.610Z,10.54
2019-03-13T11:12:55.345Z,10.64
2019-03-13T11:15:48.780Z,10.20
2019-03-13T11:18:32.041Z,10.15
2019-03-13T11:21:20.418Z,9.89
2019-03-13T11:24:08.848Z,10.07
2019-03-13T11:26:59.461Z,9.95
2019-03-13T11:29:54.722Z,9.20
2019-03-13T11:32:31.682Z,8.83
2019-03-13T11:35:11.473Z,8.75
2019-03-13T11:38:08.421Z,8.63
2019-03-13T11:41:15.054Z,8.62
2019-03-13T11:43:58.750Z,8.58
2019-03-13T11:46:47.970Z,8.46
2019-03-13T11:49:35.794Z,8.44
2019-03-13T11:52:27.158Z,8.63
2019-03-13T11:55:12.959Z,9.11
2019-03-13T11:57:59.612Z,9.35
2019-03-13T12:00:46.505Z,8.91
2019-03-13T12:03:23.690Z,9.16
2019-03-13T12:06:12.491Z,9.14
2019-03-13T12:08:58.759Z,9.58
2019-03-13T12:11:58.444Z,9.86
2019-03-13T12:14:32.508Z,9.73
2019-03-13T12:17:14.696Z,9.91
2019-03-13T12:19:59.044Z,10.39
2019-03-13T12:22:55.493Z,10.22
2019-03-13T12:25:45.839Z,11.11
2019-03-13T12:28:32.445Z,11.28
2019-03-13T12:31:16.779Z,11.49
2019-03-13T12:34:04.551Z,11.43
2019-03-13T12:36:49.347Z,10.99
2019-03-13T12:39:39.828Z,10.58
2019-03-13T12:42:26.359Z,10.28
2019-03-13T12:45:14.046Z,10.64
2019-03-13T12:48:16.182Z,10.99
2019-03-13T12:50:53.387Z,10.63
2019-03-13T12:53:28.422Z,10.65
2019-03-13T12:56:30.123Z,10.97
2019-03-13T12:59:14.077Z,11.27
2019-03-13T13:01:50.233Z,11.62
2019-03-13T13:04:44.002Z,12.00
2019-03-13T13:07:30.500Z,11.18
2019-03-13T13:10:16.849Z,10.93
2019-03-13T13:13:07.970Z,10.55
2019-03-13T13:16:04.893Z,10.30
2019-03-13T13:18:39.633Z,9.79
2019-03-13T13:21:07.981Z,9.69
2019-03-13T13:23:35.976Z,9.90
2019-03-13T13:26:04.442Z,9.94
2019-03-13T13:28:32.574Z,10.27
2019-03-13T13:31:01.969Z,11.33
2019-03-13T13:33:31.258Z,11.91
2019-03-13T13:35:59.677Z,12.60
2019-03-13T13:38:27.754Z,14.09
2019-03-13T13:40:55.896Z,14.83
2019-03-13T13:43:24.013Z,13.89
2019-03-13T13:46:06.713Z,15.22
2019-03-13T13:48:35.081Z,16.29
2019-03-13T13:51:03.339Z,16.48
2019-03-13T13:53:31.426Z,16.92
2019-03-13T13:55:59.413Z,17.95
2019-03-13T13:58:28.713Z,18.35
2019-03-13T14:00:56.987Z,16.45
2019-03-13T14:03:25.417Z,15.34
2019-03-13T14:05:54.380Z,14.34
2019-03-13T14:08:22.858Z,13.00
2019-03-13T14:10:50.931Z,12.05
2019-03-13T14:13:19.056Z,11.59
2019-03-13T14:15:47.663Z,10.17
2019-03-13T14:18:15.799Z,10.53
2019-03-13T14:20:43.835Z,11.45
2019-03-13T14:23:12.071Z,12.88
2019-03-13T14:25:40.265Z,14.20
2019-03-13T14:28:08.452Z,14.98
2019-03-13T14:30:36.628Z,14.77
2019-03-13T14:33:05.003Z,16.42
2019-03-13T14:35:33.219Z,18.71
2019-03-13T14:38:01.584Z,17.19
2019-03-13T14:40:32.829Z,17.20
2019-03-13T14:43:01.662Z,15.66
2019-03-13T14:45:33.653Z,14.88
2019-03-13T14:48:03.209Z,13.66
2019-03-13T14:50:31.327Z,14.34
2019-03-13T14:52:59.301Z,14.56
2019-03-13T14:55:27.393Z,15.85
2019-03-13T14:57:55.646Z,13.79
2019-03-13T15:00:23.723Z,12.07
2019-03-13T15:02:52.857Z,11.61
2019-03-13T15:05:21.291Z,11.80
2019-03-13T15:07:49.428Z,11.53
2019-03-13T15:10:17.539Z,10.81
2019-03-13T15:12:46.017Z,10.77
2019-03-13T15:15:14.124Z,10.56
2019-03-13T15:17:42.160Z,10.15
2019-03-13T15:20:13.257Z,10.54
2019-03-13T15:22:41.650Z,10.33
2019-03-13T15:25:11.090Z,10.29
2019-03-13T15:27:39.567Z,10.12
2019-03-13T15:30:14.969Z,10.16
2019-03-13T15:32:43.216Z,10.31
2019-03-13T15:35:11.466Z,10.62
2019-03-13T15:37:39.696Z,10.63
2019-03-13T15:40:10.846Z,10.17
2019-03-13T15:42:39.288Z,10.01
2019-03-13T15:45:10.847Z,9.72
2019-03-13T15:47:39.427Z,9.60
2019-03-13T15:50:10.204Z,9.69
2019-03-13T15:52:38.674Z,10.04
2019-03-13T15:55:09.320Z,10.26
2019-03-13T15:57:37.375Z,10.15
2019-03-13T16:00:09.568Z,9.45
2019-03-13T16:02:37.745Z,9.68
2019-03-13T16:05:06.106Z,9.70
2019-03-13T16:07:34.362Z,9.55
2019-03-13T16:10:03.478Z,9.55
2019-03-13T16:12:32.121Z,9.20
2019-03-13T16:15:00.370Z,9.14
2019-03-13T16:17:28.419Z,9.05
2019-03-13T16:19:57.771Z,9.03
2019-03-13T16:22:25.876Z,8.98
2019-03-13T16:24:56.943Z,8.93
2019-03-13T16:27:25.122Z,8.81
2019-03-13T16:29:53.146Z,8.87
2019-03-13T16:32:24.774Z,9.07
2019-03-13T16:34:57.243Z,8.98
2019-03-13T16:37:25.746Z,8.96
2019-03-13T16:39:54.146Z,8.84
2019-03-13T16:42:22.300Z,8.95
2019-03-13T16:44:50.344Z,8.94
2019-03-13T16:47:18.529Z,8.77
2019-03-13T16:49:46.830Z,8.91
2019-03-13T16:52:15.090Z,8.75
2019-03-13T16:54:43.466Z,8.70
2019-03-13T16:57:11.837Z,8.66
2019-03-13T16:59:40.295Z,8.81
2019-03-13T17:02:08.465Z,8.72
2019-03-13T17:04:36.652Z,8.58
2019-03-13T17:07:04.930Z,8.65
2019-03-13T17:09:33.435Z,8.56
2019-03-13T17:12:01.509Z,8.40
2019-03-13T17:14:30.858Z,8.25
2019-03-13T17:16:59.162Z,8.20
2019-03-13T17:19:27.541Z,8.33
2019-03-13T17:21:55.860Z,8.20
2019-03-13T17:24:24.521Z,8.13
2019-03-13T17:26:53.130Z,8.11
2019-03-13T17:29:21.526Z,8.03
2019-03-13T17:31:49.514Z,8.04
2019-03-13T17:34:17.933Z,7.99
2019-03-13T17:36:46.317Z,7.94
2019-03-13T17:39:14.824Z,7.99
2019-03-13T17:41:43.421Z,7.93
2019-03-13T17:44:11.592Z,7.85
2019-03-13T17:46:39.610Z,7.87
2019-03-13T17:49:07.569Z,7.91
2019-03-13T17:51:35.571Z,7.90
2019-03-13T17:54:03.810Z,7.93
2019-03-13T17:56:31.905Z,7.95
2019-03-13T17:59:00.847Z,7.92
2019-03-13T18:01:29.318Z,7.89
2019-03-13T18:03:57.561Z,7.92
2019-03-13T18:06:25.663Z,7.96
2019-03-13T18:08:55.549Z,7.99
2019-03-13T18:11:23.650Z,7.96
2019-03-13T18:13:51.902Z,7.84
2019-03-13T18:16:20.164Z,7.74
2019-03-13T18:18:48.821Z,7.67
2019-03-13T18:21:16.995Z,7.69
2019-03-13T18:23:45.157Z,7.61
2019-03-13T18:26:14.172Z,7.56
2019-03-13T18:28:42.748Z,7.46
2019-03-13T18:31:12.643Z,7.52
2019-03-13T18:33:40.757Z,7.57
2019-03-13T18:36:09.812Z,7.51
2019-03-13T18:38:37.769Z,7.55
2019-03-13T18:41:05.782Z,7.46
2019-03-13T18:43:34.517Z,7.39
2019-03-13T18:46:02.652Z,7.46
2019-03-13T18:48:30.894Z,7.50
2019-03-13T18:51:00.066Z,7.28
2019-03-13T18:53:28.161Z,7.23
2019-03-13T18:55:56.206Z,7.17
2019-03-13T18:58:24.478Z,7.08
2019-03-13T19:00:52.812Z,7.06
2019-03-13T19:03:21.297Z,7.02
2019-03-13T19:05:49.296Z,6.91
2019-03-13T19:08:17.609Z,6.76
2019-03-13T19:10:45.604Z,6.72
2019-03-13T19:13:13.823Z,6.61
2019-03-13T19:15:42.529Z,6.29
2019-03-13T19:18:11.005Z,6.32
2019-03-13T19:20:39.086Z,6.27
2019-03-13T19:23:07.267Z,6.23
2019-03-13T19:25:35.527Z,6.15
2019-03-13T19:28:09.194Z,6.12
2019-03-13T19:30:38.170Z,6.10
2019-03-13T19:33:07.800Z,6.07
2019-03-13T19:35:37.014Z,6.07
2019-03-13T19:38:05.817Z,5.98
2019-03-13T19:40:33.976Z,6.06
2019-03-13T19:43:02.117Z,5.98
2019-03-13T19:45:34.078Z,6.08
2019-03-13T19:48:02.606Z,6.07
2019-03-13T19:50:30.683Z,6.01
2019-03-13T19:52:59.194Z,6.09
2019-03-13T19:55:27.824Z,6.16
2019-03-13T19:57:56.134Z,6.13
2019-03-13T20:00:25.080Z,5.98
2019-03-13T20:03:00.040Z,5.99
2019-03-13T20:05:24.077Z,5.94
2019-03-13T20:07:52.287Z,6.01
2019-03-13T20:10:22.615Z,6.03
2019-03-13T20:12:51.564Z,5.93
2019-03-13T20:15:21.123Z,6.07
2019-03-13T20:17:49.290Z,6.02
2019-03-13T20:20:18.492Z,5.98
2019-03-13T20:22:48.449Z,5.97
2019-03-13T20:25:17.783Z,6.00
2019-03-13T20:27:46.812Z,6.01
2019-03-13T20:30:17.483Z,6.07
2019-03-13T20:32:45.449Z,6.06
2019-03-13T20:35:13.608Z,6.13
2019-03-13T20:37:41.614Z,6.19
2019-03-13T20:40:12.995Z,6.27
2019-03-13T20:42:41.201Z,6.25
2019-03-13T20:45:11.712Z,6.23
2019-03-13T20:47:39.859Z,6.29
2019-03-13T20:50:17.331Z,6.39
2019-03-13T20:52:45.872Z,6.48
2019-03-13T20:55:15.018Z,6.48
2019-03-13T20:57:43.121Z,6.46
2019-03-13T21:00:17.513Z,6.55
2019-03-13T21:02:45.791Z,6.62
2019-03-13T21:05:14.063Z,6.66
2019-03-13T21:07:50.153Z,6.67
2019-03-13T21:10:18.331Z,6.61
2019-03-13T21:12:48.667Z,6.67
2019-03-13T21:15:17.106Z,6.66
2019-03-13T21:17:45.283Z,6.51
2019-03-13T21:20:14.699Z,6.59
2019-03-13T21:22:43.314Z,6.45
2019-03-13T21:25:12.417Z,6.41
2019-03-13T21:27:40.727Z,6.44
2019-03-13T21:30:15.005Z,6.39
2019-03-13T21:32:43.509Z,6.25
2019-03-13T21:35:13.003Z,6.27
2019-03-13T21:37:41.052Z,6.29
2019-03-13T21:40:10.466Z,6.34
2019-03-13T21:42:38.427Z,6.38
2019-03-13T21:45:07.283Z,6.22
2019-03-13T21:47:35.640Z,6.26
2019-03-13T21:50:04.477Z,6.24
2019-03-13T21:52:32.758Z,6.00
2019-03-13T21:55:00.832Z,5.83
2019-03-13T21:57:28.918Z,5.69
2019-03-13T21:59:56.914Z,5.66
2019-03-13T22:02:32.641Z,5.62
2019-03-13T22:04:54.826Z,5.57
2019-03-13T22:07:22.987Z,5.62
2019-03-13T22:09:51.049Z,5.68
2019-03-13T22:12:19.182Z,5.70
2019-03-13T22:14:47.695Z,5.66
2019-03-13T22:17:15.751Z,5.59
2019-03-13T22:19:43.727Z,5.66
2019-03-13T22:22:11.614Z,5.69
2019-03-13T22:24:39.788Z,5.73
2019-03-13T22:27:07.853Z,5.65
2019-03-13T22:29:35.880Z,5.65
2019-03-13T22:32:04.254Z,5.66
2019-03-13T22:34:32.494Z,5.69
2019-03-13T22:37:00.837Z,5.75
2019-03-13T22:39:29.272Z,5.75
2019-03-13T22:41:59.508Z,5.66
2019-03-13T22:44:29.078Z,5.66
2019-03-13T22:46:57.094Z,5.67
2019-03-13T22:49:26.285Z,5.60
2019-03-13T22:51:56.909Z,5.60
2019-03-13T22:54:25.255Z,5.49
2019-03-13T22:56:53.228Z,5.64
2019-03-13T22:59:23.149Z,5.64
2019-03-13T23:01:51.133Z,5.69
2019-03-13T23:04:20.469Z,5.69
2019-03-13T23:06:52.009Z,5.76
2019-03-13T23:09:20.264Z,5.77
2019-03-13T23:11:48.586Z,5.86
2019-03-13T23:14:17.089Z,5.95
2019-03-13T23:16:46.226Z,5.93
2019-03-13T23:19:17.316Z,6.06
2019-03-13T23:21:45.178Z,6.03
2019-03-13T23:24:13.068Z,6.06
2019-03-13T23:26:41.434Z,6.06
2019-03-13T23:29:09.596Z,6.07
2019-03-13T23:31:37.870Z,6.02
2019-03-13T23:34:05.992Z,6.12
2019-03-13T23:36:34.294Z,6.10
2019-03-13T23:39:02.334Z,6.06
2019-03-13T23:41:34.128Z,6.06
2019-03-13T23:44:02.112Z,6.10
2019-03-13T23:46:30.073Z,6.10
2019-03-13T23:48:58.223Z,6.20
2019-03-13T23:51:26.460Z,6.11
2019-03-13T23:53:54.865Z,6.06
2019-03-13T23:56:23.137Z,6.05
2019-03-13T23:58:51.465Z,6.00
